Time;durP1;ratioP1;P1;durP2;ratioP2;P2;SDS_P1;SDS_P2;PMS_P1;PMS_P2;Temp;Humidity;BMP_temperature;BMP_pressure;BME280_temperature;BME280_humidity;BME280_pressure;Samples;Min_cycle;Max_cycle;Signal;HPM_P1;HPM_P2
2022/12/12 00:03:45;;;;;;;8.00;4.77;;;;;;;;;;10424239;28;20215;-68
2022/12/12 00:08:46;;;;;;;8.60;5.33;;;;;;;;;;10426742;28;20741;-69
2022/12/12 00:13:47;;;;;;;10.37;4.67;;;;;;;;;;10417667;28;20254;-68
2022/12/12 00:18:48;;;;;;;11.90;6.03;;;;;;;;;;10419340;28;20211;-68
2022/12/12 00:23:49;;;;;;;14.23;5.63;;;;;;;;;;10417152;28;20636;-69
2022/12/12 00:28:51;;;;;;;10.60;4.93;;;;;;;;;;10416229;28;20284;-68
2022/12/12 00:33:52;;;;;;;11.50;5.73;;;;;;;;;;10413884;28;20816;-68
2022/12/12 00:38:53;;;;;;;14.00;6.27;;;;;;;;;;10418470;28;20296;-67
2022/12/12 00:43:54;;;;;;;15.17;5.20;;;;;;;;;;10413651;28;20223;-71
2022/12/12 00:48:56;;;;;;;9.33;5.83;;;;;;;;;;10415654;28;20222;-68
2022/12/12 00:53:59;;;;;;;11.80;5.73;;;;;;;;;;10416845;28;20233;-68
2022/12/12 00:59:02;;;;;;;8.57;5.10;;;;;;;;;;10418375;28;20717;-69
2022/12/12 01:04:03;;;;;;;12.90;4.93;;;;;;;;;;10440605;28;20623;-69
2022/12/12 01:09:04;;;;;;;11.97;6.13;;;;;;;;;;10424672;28;20289;-68
2022/12/12 01:14:05;;;;;;;15.90;5.20;;;;;;;;;;10416234;28;20337;-69
2022/12/12 01:19:07;;;;;;;12.03;5.00;;;;;;;;;;10413988;28;20233;-69
2022/12/12 01:24:08;;;;;;;16.17;6.03;;;;;;;;;;10456807;28;20729;-69
2022/12/12 01:29:09;;;;;;;13.60;6.90;;;;;;;;;;10420255;28;21101;-69
2022/12/12 01:34:11;;;;;;;9.80;5.93;;;;;;;;;;10415545;28;20203;-69
2022/12/12 01:39:12;;;;;;;14.43;5.77;;;;;;;;;;10414972;28;20215;-69
2022/12/12 01:44:31;;;;;;;12.90;5.47;;;;;;;;;;10413663;28;20737;-69
2022/12/12 01:49:33;;;;;;;8.80;5.33;;;;;;;;;;10413438;28;20777;-68
2022/12/12 01:54:37;;;;;;;16.43;5.60;;;;;;;;;;10418928;28;20211;-68
2022/12/12 01:59:39;;;;;;;10.73;6.23;;;;;;;;;;10443867;28;20284;-68
2022/12/12 02:04:41;;;;;;;7.53;5.30;;;;;;;;;;10412249;28;20219;-69
2022/12/12 02:09:42;;;;;;;12.77;6.03;;;;;;;;;;10417094;28;20225;-69
2022/12/12 02:14:45;;;;;;;14.67;5.90;;;;;;;;;;10420573;28;20242;-68
2022/12/12 02:19:52;;;;;;;11.07;5.90;;;;;;;;;;10420044;28;20211;-68
2022/12/12 02:25:04;;;;;;;14.60;6.03;;;;;;;;;;10416004;28;20248;-68
2022/12/12 02:30:05;;;;;;;11.33;6.07;;;;;;;;;;10420841;28;20298;-69
2022/12/12 02:35:19;;;;;;;10.47;5.43;;;;;;;;;;10413004;28;20191;-68
2022/12/12 02:40:25;;;;;;;7.80;4.47;;;;;;;;;;10444336;28;20206;-69
2022/12/12 02:45:26;;;;;;;10.03;5.50;;;;;;;;;;10418024;28;20276;-69
2022/12/12 02:50:29;;;;;;;12.00;5.20;;;;;;;;;;10449246;28;20214;-69
2022/12/12 02:55:30;;;;;;;8.70;5.03;;;;;;;;;;10412884;28;20234;-69
2022/12/12 03:00:37;;;;;;;15.77;6.30;;;;;;;;;;10413547;28;20231;-69
2022/12/12 03:11:24;;;;;;;11.73;6.37;;;;;;;;;;10415567;28;20704;-69
2022/12/12 03:16:25;;;;;;;15.67;5.83;;;;;;;;;;10413408;28;20846;-69
2022/12/12 03:21:44;;;;;;;14.17;6.03;;;;;;;;;;10412518;28;20306;-69
2022/12/12 03:26:50;;;;;;;14.23;6.43;;;;;;;;;;10419075;28;20349;-69
2022/12/12 03:31:53;;;;;;;9.73;5.60;;;;;;;;;;10419272;28;20711;-69
2022/12/12 03:37:09;;;;;;;9.60;5.33;;;;;;;;;;10416265;28;20720;-69
2022/12/12 03:42:15;;;;;;;12.10;6.50;;;;;;;;;;10412910;28;20745;-68
2022/12/12 03:47:19;;;;;;;16.17;6.53;;;;;;;;;;10415980;28;20223;-69
2022/12/12 03:52:27;;;;;;;13.40;5.97;;;;;;;;;;10414480;28;20285;-68
2022/12/12 03:57:32;;;;;;;12.60;5.57;;;;;;;;;;10441440;28;20604;-69
2022/12/12 04:02:38;;;;;;;13.10;5.33;;;;;;;;;;10439605;28;20686;-69
2022/12/12 04:07:48;;;;;;;14.37;6.07;;;;;;;;;;10399520;28;20227;-69
2022/12/12 04:12:59;;;;;;;12.13;6.07;;;;;;;;;;10420673;28;20246;-69
2022/12/12 04:18:00;;;;;;;12.50;6.30;;;;;;;;;;10426857;28;20225;-69
2022/12/12 04:23:15;;;;;;;13.20;6.00;;;;;;;;;;10420445;28;20203;-69
2022/12/12 04:28:17;;;;;;;13.50;6.10;;;;;;;;;;10386256;28;20219;-69
2022/12/12 04:33:19;;;;;;;12.53;5.90;;;;;;;;;;10369666;28;20222;-68
2022/12/12 04:38:22;;;;;;;14.37;5.77;;;;;;;;;;10387335;28;20231;-71
2022/12/12 04:43:27;;;;;;;9.53;4.93;;;;;;;;;;10372819;28;20251;-71
2022/12/12 04:48:33;;;;;;;11.40;5.03;;;;;;;;;;10374234;28;20223;-69
2022/12/12 04:53:38;;;;;;;11.13;5.77;;;;;;;;;;10382932;28;20330;-69
2022/12/12 04:58:39;;;;;;;14.50;6.17;;;;;;;;;;10387565;28;20215;-71
2022/12/12 05:03:48;;;;;;;12.57;6.90;;;;;;;;;;10385498;28;20215;-71
2022/12/12 05:08:51;;;;;;;14.47;6.70;;;;;;;;;;10368778;28;20247;-71
2022/12/12 05:13:52;;;;;;;17.00;6.43;;;;;;;;;;10381528;28;20215;-71
2022/12/12 05:18:53;;;;;;;15.93;6.90;;;;;;;;;;10381252;28;20217;-68
2022/12/12 05:23:54;;;;;;;16.37;6.87;;;;;;;;;;10374465;28;20235;-70
2022/12/12 05:28:56;;;;;;;10.77;5.60;;;;;;;;;;10420121;28;20218;-68
2022/12/12 05:33:57;;;;;;;14.23;6.00;;;;;;;;;;10418945;28;20214;-71
2022/12/12 05:38:59;;;;;;;13.77;6.47;;;;;;;;;;10424365;28;20223;-72
2022/12/12 05:44:00;;;;;;;14.97;6.07;;;;;;;;;;10423101;28;20317;-71
2022/12/12 05:49:01;;;;;;;14.47;7.00;;;;;;;;;;10412046;28;20884;-71
2022/12/12 05:54:02;;;;;;;14.27;7.80;;;;;;;;;;10419875;28;20272;-71
2022/12/12 05:59:03;;;;;;;16.57;6.47;;;;;;;;;;10417019;28;20972;-71
2022/12/12 06:04:04;;;;;;;18.10;7.10;;;;;;;;;;10415202;28;20222;-71
2022/12/12 06:09:05;;;;;;;15.97;7.67;;;;;;;;;;10416117;28;20203;-71
2022/12/12 06:14:07;;;;;;;13.83;6.47;;;;;;;;;;10422353;28;20219;-71
2022/12/12 06:19:08;;;;;;;14.27;6.47;;;;;;;;;;10419384;28;20227;-71
2022/12/12 06:24:09;;;;;;;15.07;6.13;;;;;;;;;;10412495;28;20226;-70
2022/12/12 06:29:10;;;;;;;15.87;8.33;;;;;;;;;;10426932;28;20218;-71
2022/12/12 06:34:11;;;;;;;14.23;6.87;;;;;;;;;;10392627;28;20563;-71
2022/12/12 06:39:12;;;;;;;11.53;6.97;;;;;;;;;;10408020;28;20770;-68
2022/12/12 06:44:13;;;;;;;12.03;6.93;;;;;;;;;;10417494;28;20214;-68
2022/12/12 06:49:17;;;;;;;16.90;7.97;;;;;;;;;;10399606;28;20542;-69
2022/12/12 06:54:19;;;;;;;15.70;6.30;;;;;;;;;;10402346;28;20222;-69
2022/12/12 06:59:20;;;;;;;17.33;7.23;;;;;;;;;;10420080;28;20215;-70
2022/12/12 07:04:21;;;;;;;15.90;6.67;;;;;;;;;;10418335;28;20789;-69
2022/12/12 07:09:22;;;;;;;15.63;6.47;;;;;;;;;;10419167;28;20210;-69
2022/12/12 07:14:23;;;;;;;16.23;6.00;;;;;;;;;;10408224;28;20214;-69
2022/12/12 07:19:25;;;;;;;17.80;6.63;;;;;;;;;;10412660;28;20703;-68
2022/12/12 07:24:26;;;;;;;15.93;7.63;;;;;;;;;;10408636;28;20246;-70
2022/12/12 07:29:27;;;;;;;15.23;6.63;;;;;;;;;;10375474;28;20238;-69
2022/12/12 07:34:29;;;;;;;21.37;7.83;;;;;;;;;;10380424;28;20708;-69
2022/12/12 07:39:30;;;;;;;11.87;7.20;;;;;;;;;;10387050;28;20212;-69
2022/12/12 07:44:32;;;;;;;19.00;7.17;;;;;;;;;;10382408;28;20226;-69
2022/12/12 07:49:33;;;;;;;17.43;7.33;;;;;;;;;;10388776;28;20330;-69
2022/12/12 07:54:34;;;;;;;15.73;7.53;;;;;;;;;;10379434;28;20232;-72
2022/12/12 07:59:35;;;;;;;17.43;6.57;;;;;;;;;;10384265;28;20216;-73
2022/12/12 08:04:36;;;;;;;15.77;6.07;;;;;;;;;;10382153;28;20230;-71
2022/12/12 08:09:37;;;;;;;15.67;7.07;;;;;;;;;;10398220;28;20220;-70
2022/12/12 08:14:38;;;;;;;19.10;7.87;;;;;;;;;;10378691;28;20215;-71
2022/12/12 08:19:40;;;;;;;20.63;7.40;;;;;;;;;;10388609;28;20307;-69
2022/12/12 08:24:41;;;;;;;14.33;7.00;;;;;;;;;;10391815;28;20749;-69
2022/12/12 08:29:42;;;;;;;14.27;6.27;;;;;;;;;;10423780;28;20215;-69
2022/12/12 08:34:44;;;;;;;15.50;7.40;;;;;;;;;;10423558;28;20222;-72
2022/12/12 08:39:45;;;;;;;13.73;6.80;;;;;;;;;;10421466;28;20220;-71
2022/12/12 08:44:46;;;;;;;17.77;6.77;;;;;;;;;;10415699;28;20768;-70
2022/12/12 08:49:47;;;;;;;15.23;7.50;;;;;;;;;;10416459;28;20219;-71
2022/12/12 08:54:48;;;;;;;17.73;7.57;;;;;;;;;;10428428;28;20693;-71
2022/12/12 08:59:49;;;;;;;17.23;6.83;;;;;;;;;;10427399;28;20210;-71
2022/12/12 09:04:51;;;;;;;16.63;7.20;;;;;;;;;;10420996;28;20597;-71
2022/12/12 09:09:52;;;;;;;14.20;7.17;;;;;;;;;;10417812;28;20218;-70
2022/12/12 09:14:53;;;;;;;17.00;7.27;;;;;;;;;;10434353;28;20333;-71
2022/12/12 09:19:54;;;;;;;13.63;6.80;;;;;;;;;;10419704;28;20215;-71
2022/12/12 09:24:55;;;;;;;15.13;6.47;;;;;;;;;;10416821;28;20602;-72
2022/12/12 09:29:56;;;;;;;8.33;5.60;;;;;;;;;;10418279;28;20216;-71
2022/12/12 09:34:57;;;;;;;12.83;6.27;;;;;;;;;;10415931;28;20211;-71
2022/12/12 09:39:58;;;;;;;16.37;7.40;;;;;;;;;;10424587;28;20224;-71
2022/12/12 09:45:01;;;;;;;17.60;6.50;;;;;;;;;;10423070;28;20247;-72
2022/12/12 09:50:08;;;;;;;9.10;5.30;;;;;;;;;;10415959;28;20245;-70
2022/12/12 09:55:27;;;;;;;10.90;6.27;;;;;;;;;;10413900;28;20734;-72
2022/12/12 10:00:31;;;;;;;13.53;6.33;;;;;;;;;;10419811;28;20226;-71
2022/12/12 10:05:51;;;;;;;15.53;7.03;;;;;;;;;;10413451;28;20276;-72
2022/12/12 10:10:54;;;;;;;17.50;7.80;;;;;;;;;;10422996;28;20314;-72
2022/12/12 10:16:02;;;;;;;13.47;7.37;;;;;;;;;;10421094;28;20362;-72
2022/12/12 10:21:06;;;;;;;13.45;7.15;;;;;;;;;;10421391;28;20210;-71
2022/12/12 10:26:15;;;;;;;9.35;6.05;;;;;;;;;;10419513;28;20225;-71
2022/12/12 10:31:16;;;;;;;12.98;7.30;;;;;;;;;;10421002;28;20366;-71
2022/12/12 10:36:28;;;;;;;13.90;6.47;;;;;;;;;;10419274;28;20214;-71
2022/12/12 10:41:39;;;;;;;10.75;6.57;;;;;;;;;;10421987;28;20268;-71
2022/12/12 10:46:53;;;;;;;13.87;6.47;;;;;;;;;;10421995;28;20306;-71
2022/12/12 10:51:55;;;;;;;9.47;6.53;;;;;;;;;;10412032;28;20206;-70
2022/12/12 10:57:13;;;;;;;10.63;5.40;;;;;;;;;;10416880;28;20591;-70
2022/12/12 11:02:37;;;;;;;6.68;4.85;;;;;;;;;;10423358;28;20210;-70
2022/12/12 11:07:40;;;;;;;8.60;5.40;;;;;;;;;;10429278;28;20222;-70
2022/12/12 11:12:41;;;;;;;11.70;5.85;;;;;;;;;;10435917;28;20454;-70
2022/12/12 11:17:42;;;;;;;9.05;5.93;;;;;;;;;;10425546;28;20215;-71
2022/12/12 11:22:43;;;;;;;9.87;5.33;;;;;;;;;;10428480;28;20205;-73
2022/12/12 11:27:45;;;;;;;8.65;5.97;;;;;;;;;;10409032;28;20231;-71
2022/12/12 11:32:47;;;;;;;9.35;5.82;;;;;;;;;;10420734;28;20554;-70
2022/12/12 11:37:50;;;;;;;8.75;5.22;;;;;;;;;;10408332;28;20225;-69
2022/12/12 11:42:51;;;;;;;12.55;6.72;;;;;;;;;;10410663;28;20220;-70
2022/12/12 11:47:54;;;;;;;12.68;5.85;;;;;;;;;;10425472;28;20310;-70
2022/12/12 11:52:57;;;;;;;10.02;5.63;;;;;;;;;;10419773;28;20239;-71
2022/12/12 11:58:28;;;;;;;10.20;5.38;;;;;;;;;;10415855;28;20262;-69
2022/12/12 12:03:36;;;;;;;12.60;6.80;;;;;;;;;;10407818;28;20241;-71
2022/12/12 12:08:47;;;;;;;14.50;7.13;;;;;;;;;;10421326;28;20344;-71
2022/12/12 12:13:51;;;;;;;13.23;7.25;;;;;;;;;;10426345;28;20229;-71
2022/12/12 12:19:15;;;;;;;12.83;6.83;;;;;;;;;;10416988;28;20221;-71
2022/12/12 12:24:22;;;;;;;6.13;5.28;;;;;;;;;;10424321;28;20235;-70
2022/12/12 12:29:38;;;;;;;15.32;7.32;;;;;;;;;;10425134;28;20222;-71
2022/12/12 12:34:42;;;;;;;10.73;6.93;;;;;;;;;;10418499;28;20285;-72
2022/12/12 12:39:54;;;;;;;11.10;7.00;;;;;;;;;;10421234;28;20326;-71
2022/12/12 12:45:04;;;;;;;12.47;5.93;;;;;;;;;;10418196;28;20215;-71
2022/12/12 12:50:15;;;;;;;10.32;5.70;;;;;;;;;;10420981;28;20215;-71
2022/12/12 12:55:18;;;;;;;12.67;7.07;;;;;;;;;;10418125;28;20191;-71
2022/12/12 13:00:22;;;;;;;12.30;6.10;;;;;;;;;;10412914;28;20191;-72
2022/12/12 13:05:23;;;;;;;12.90;6.70;;;;;;;;;;10424583;28;20608;-72
2022/12/12 13:10:29;;;;;;;10.47;6.03;;;;;;;;;;10419437;28;20716;-72
2022/12/12 13:15:33;;;;;;;16.77;7.07;;;;;;;;;;10405790;28;20222;-72
2022/12/12 13:20:38;;;;;;;12.73;6.82;;;;;;;;;;10430120;28;20957;-71
2022/12/12 13:26:09;;;;;;;12.88;6.57;;;;;;;;;;10400815;28;20348;-72
2022/12/12 13:31:10;;;;;;;66.97;26.48;;;;;;;;;;10410028;28;20211;-72
2022/12/12 13:36:18;;;;;;;29.30;13.30;;;;;;;;;;10421342;28;20306;-72
2022/12/12 13:41:20;;;;;;;15.20;8.03;;;;;;;;;;10417426;28;20222;-72
2022/12/12 13:46:27;;;;;;;29.08;8.20;;;;;;;;;;10392318;28;20223;-72
2022/12/12 13:51:32;;;;;;;12.93;6.50;;;;;;;;;;10406079;28;20239;-71
2022/12/12 13:56:35;;;;;;;13.70;6.50;;;;;;;;;;10397123;28;20223;-71
2022/12/12 14:01:40;;;;;;;11.15;6.40;;;;;;;;;;10408919;28;20220;-72
2022/12/12 14:06:41;;;;;;;13.97;7.37;;;;;;;;;;10410857;28;20230;-72
2022/12/12 14:11:42;;;;;;;9.97;5.53;;;;;;;;;;10407088;28;20663;-71
2022/12/12 14:16:50;;;;;;;12.20;6.33;;;;;;;;;;10413698;28;20219;-72
2022/12/12 14:21:51;;;;;;;16.90;8.07;;;;;;;;;;10416777;28;20877;-71
2022/12/12 14:26:52;;;;;;;11.57;5.80;;;;;;;;;;10413047;28;20242;-71
2022/12/12 14:31:53;;;;;;;10.43;6.17;;;;;;;;;;10438685;28;20217;-70
2022/12/12 14:37:01;;;;;;;11.45;6.57;;;;;;;;;;10421863;28;20218;-71
2022/12/12 14:42:05;;;;;;;13.17;6.43;;;;;;;;;;10421971;28;20281;-71
2022/12/12 14:47:07;;;;;;;8.13;6.33;;;;;;;;;;10419878;28;20227;-70
2022/12/12 14:52:11;;;;;;;9.13;6.03;;;;;;;;;;10417002;28;20614;-71
2022/12/12 14:57:18;;;;;;;11.43;5.55;;;;;;;;;;10418403;28;20223;-71
2022/12/12 15:02:25;;;;;;;14.82;7.93;;;;;;;;;;10411346;28;20213;-70
2022/12/12 15:07:28;;;;;;;11.80;5.60;;;;;;;;;;10407844;28;20580;-71
2022/12/12 15:12:33;;;;;;;11.93;5.70;;;;;;;;;;10411032;28;20225;-72
2022/12/12 15:17:37;;;;;;;16.05;8.05;;;;;;;;;;10414409;28;20225;-71
2022/12/12 15:22:49;;;;;;;10.02;6.43;;;;;;;;;;10409884;28;20222;-70
2022/12/12 15:27:53;;;;;;;9.73;6.07;;;;;;;;;;10416196;28;20782;-70
2022/12/12 15:32:54;;;;;;;12.13;6.50;;;;;;;;;;10420469;28;20758;-70
2022/12/12 15:37:56;;;;;;;13.63;7.00;;;;;;;;;;10418732;28;20272;-70
2022/12/12 15:42:59;;;;;;;13.70;6.65;;;;;;;;;;10408818;28;20720;-69
2022/12/12 15:48:01;;;;;;;14.00;7.15;;;;;;;;;;10400700;28;20253;-70
2022/12/12 15:53:22;;;;;;;8.55;5.88;;;;;;;;;;10395702;28;20211;-70
2022/12/12 15:58:26;;;;;;;10.87;6.60;;;;;;;;;;10413518;28;20211;-70
2022/12/12 16:03:27;;;;;;;19.00;8.70;;;;;;;;;;10420443;28;20557;-70
2022/12/12 16:08:32;;;;;;;19.08;8.88;;;;;;;;;;10421303;28;20756;-73
2022/12/12 16:13:43;;;;;;;18.73;10.35;;;;;;;;;;10433767;28;20245;-70
2022/12/12 16:18:45;;;;;;;23.17;10.33;;;;;;;;;;10416644;28;20210;-70
2022/12/12 16:23:46;;;;;;;16.43;7.17;;;;;;;;;;10412137;28;20238;-71
2022/12/12 16:28:47;;;;;;;19.23;9.60;;;;;;;;;;10415696;28;20222;-74
2022/12/12 16:33:49;;;;;;;62.53;26.33;;;;;;;;;;10419095;28;20301;-76
2022/12/12 16:38:50;;;;;;;20.33;11.20;;;;;;;;;;10418161;28;20227;-77
2022/12/12 16:43:51;;;;;;;25.37;13.13;;;;;;;;;;10422784;28;20688;-73
2022/12/12 16:48:52;;;;;;;16.90;9.10;;;;;;;;;;10427017;28;20211;-69
2022/12/12 16:53:54;;;;;;;16.43;8.13;;;;;;;;;;10419450;28;20584;-70
2022/12/12 16:58:55;;;;;;;63.23;21.30;;;;;;;;;;10419164;28;20219;-70
2022/12/12 17:03:56;;;;;;;23.10;10.90;;;;;;;;;;10415843;28;20234;-71
2022/12/12 17:08:57;;;;;;;16.83;8.83;;;;;;;;;;10423026;28;20223;-70
2022/12/12 17:13:59;;;;;;;12.67;8.63;;;;;;;;;;10433468;28;20223;-70
2022/12/12 17:19:00;;;;;;;10.57;6.80;;;;;;;;;;10416987;28;20208;-71
2022/12/12 17:24:01;;;;;;;14.40;7.07;;;;;;;;;;10431497;28;20225;-71
2022/12/12 17:29:03;;;;;;;12.93;7.20;;;;;;;;;;10463531;28;20242;-69
2022/12/12 17:34:04;;;;;;;13.13;7.13;;;;;;;;;;10455702;28;20304;-76
2022/12/12 17:39:05;;;;;;;10.80;5.43;;;;;;;;;;10462699;28;20236;-71
2022/12/12 17:44:07;;;;;;;8.83;5.93;;;;;;;;;;10458448;28;20224;-70
2022/12/12 17:49:08;;;;;;;15.57;8.93;;;;;;;;;;10461439;28;20353;-72
2022/12/12 17:54:09;;;;;;;8.93;6.20;;;;;;;;;;10462969;28;20327;-71
2022/12/12 17:59:10;;;;;;;12.93;6.10;;;;;;;;;;10459203;28;20222;-75
2022/12/12 18:04:11;;;;;;;11.50;6.73;;;;;;;;;;10480437;28;20258;-77
2022/12/12 18:09:13;;;;;;;10.37;6.60;;;;;;;;;;10461225;28;20296;-69
2022/12/12 18:14:17;;;;;;;13.90;7.40;;;;;;;;;;10457774;28;20219;-71
2022/12/12 18:19:22;;;;;;;14.03;7.27;;;;;;;;;;10457277;28;20211;-70
2022/12/12 18:24:24;;;;;;;15.87;7.83;;;;;;;;;;10465419;28;20245;-72
2022/12/12 18:29:25;;;;;;;11.00;6.80;;;;;;;;;;10459401;28;20818;-71
2022/12/12 18:34:26;;;;;;;12.43;6.50;;;;;;;;;;10461658;28;20211;-72
2022/12/12 18:39:28;;;;;;;12.20;6.67;;;;;;;;;;10456955;28;20221;-70
2022/12/12 18:44:29;;;;;;;13.03;6.87;;;;;;;;;;10450371;28;20595;-74
2022/12/12 18:49:30;;;;;;;13.07;6.77;;;;;;;;;;10464074;28;20685;-75
2022/12/12 18:54:31;;;;;;;14.07;7.20;;;;;;;;;;10462559;28;20209;-73
2022/12/12 18:59:32;;;;;;;46.87;18.63;;;;;;;;;;10456300;28;20221;-72
2022/12/12 19:04:33;;;;;;;42.60;17.97;;;;;;;;;;10456359;28;20236;-71
2022/12/12 19:09:34;;;;;;;71.07;20.87;;;;;;;;;;10453539;28;20753;-71
2022/12/12 19:14:35;;;;;;;30.23;12.77;;;;;;;;;;10455373;28;20213;-67
2022/12/12 19:19:36;;;;;;;25.43;10.10;;;;;;;;;;10457965;28;20297;-72
2022/12/12 19:24:39;;;;;;;25.97;10.60;;;;;;;;;;10449493;28;20237;-70
2022/12/12 19:29:41;;;;;;;25.10;9.80;;;;;;;;;;10461178;28;20215;-69
2022/12/12 19:34:42;;;;;;;23.90;10.27;;;;;;;;;;10453218;28;20248;-68
2022/12/12 19:39:43;;;;;;;21.00;9.50;;;;;;;;;;10452799;28;20214;-70
2022/12/12 19:44:44;;;;;;;17.73;7.97;;;;;;;;;;10455202;28;20297;-72
2022/12/12 19:49:45;;;;;;;19.27;8.67;;;;;;;;;;10452908;28;20357;-72
2022/12/12 19:54:46;;;;;;;20.53;8.30;;;;;;;;;;10456413;28;20268;-70
2022/12/12 19:59:48;;;;;;;22.63;9.07;;;;;;;;;;10460114;28;20209;-72
2022/12/12 20:04:49;;;;;;;20.73;10.07;;;;;;;;;;10447636;28;20548;-71
2022/12/12 20:09:50;;;;;;;18.40;7.10;;;;;;;;;;10455353;28;20563;-72
2022/12/12 20:14:51;;;;;;;17.70;8.60;;;;;;;;;;10474943;28;20226;-75
2022/12/12 20:19:52;;;;;;;23.37;8.97;;;;;;;;;;10454089;28;20275;-71
2022/12/12 20:24:54;;;;;;;16.30;7.83;;;;;;;;;;10455813;28;20740;-70
2022/12/12 20:29:55;;;;;;;15.57;8.10;;;;;;;;;;10458641;28;20213;-71
2022/12/12 20:34:56;;;;;;;17.20;7.83;;;;;;;;;;10447143;28;20815;-70
2022/12/12 20:39:58;;;;;;;14.50;7.57;;;;;;;;;;10461571;28;20275;-69
2022/12/12 20:45:00;;;;;;;15.17;7.00;;;;;;;;;;10460832;28;20522;-69
2022/12/12 20:50:01;;;;;;;17.27;7.27;;;;;;;;;;10458353;28;20713;-72
2022/12/12 20:55:03;;;;;;;18.20;7.70;;;;;;;;;;10450323;28;20215;-68
2022/12/12 21:00:05;;;;;;;13.90;7.20;;;;;;;;;;10456718;28;20172;-68
2022/12/12 21:05:07;;;;;;;18.43;7.07;;;;;;;;;;10461481;28;20510;-71
2022/12/12 21:10:08;;;;;;;17.63;6.60;;;;;;;;;;10460070;28;20198;-71
2022/12/12 21:15:10;;;;;;;20.03;6.73;;;;;;;;;;10460380;28;20201;-71
2022/12/12 21:20:11;;;;;;;12.50;6.23;;;;;;;;;;10463318;28;20646;-71
2022/12/12 21:25:12;;;;;;;11.33;6.53;;;;;;;;;;10445715;28;20347;-71
2022/12/12 21:30:14;;;;;;;13.03;7.03;;;;;;;;;;10454330;28;20175;-71
2022/12/12 21:35:15;;;;;;;12.20;5.93;;;;;;;;;;10463374;28;20189;-71
2022/12/12 21:40:16;;;;;;;17.20;6.63;;;;;;;;;;10468879;28;20384;-70
2022/12/12 21:45:19;;;;;;;9.90;6.37;;;;;;;;;;10468340;28;20308;-70
2022/12/12 21:50:20;;;;;;;14.57;6.90;;;;;;;;;;10480970;28;20211;-70
2022/12/12 21:55:21;;;;;;;14.43;6.77;;;;;;;;;;10462086;28;20181;-70
2022/12/12 22:00:24;;;;;;;7.87;5.83;;;;;;;;;;10444207;28;20219;-70
2022/12/12 22:05:25;;;;;;;15.40;7.07;;;;;;;;;;10454412;28;20218;-71
2022/12/12 22:10:28;;;;;;;10.33;5.67;;;;;;;;;;10475155;28;20364;-70
2022/12/12 22:15:29;;;;;;;11.47;5.90;;;;;;;;;;10458351;28;20860;-70
2022/12/12 22:20:30;;;;;;;17.17;7.20;;;;;;;;;;10457810;28;20215;-69
2022/12/12 22:25:31;;;;;;;11.57;6.83;;;;;;;;;;10456023;28;20770;-68
2022/12/12 22:30:32;;;;;;;19.00;7.07;;;;;;;;;;10460700;28;20380;-69
2022/12/12 22:35:34;;;;;;;14.17;7.03;;;;;;;;;;10455446;28;20218;-69
2022/12/12 22:40:35;;;;;;;16.80;7.60;;;;;;;;;;10455409;28;20222;-69
2022/12/12 22:45:36;;;;;;;16.07;9.27;;;;;;;;;;10459135;28;20222;-70
2022/12/12 22:50:37;;;;;;;13.80;6.97;;;;;;;;;;10458935;28;20242;-69
2022/12/12 22:55:39;;;;;;;14.73;5.53;;;;;;;;;;10456467;28;20225;-69
2022/12/12 23:00:40;;;;;;;12.63;6.33;;;;;;;;;;10457520;28;20308;-70
2022/12/12 23:05:41;;;;;;;13.87;5.67;;;;;;;;;;10459687;28;20600;-69
2022/12/12 23:10:42;;;;;;;10.47;5.90;;;;;;;;;;10459038;28;20213;-70
2022/12/12 23:15:44;;;;;;;12.23;6.83;;;;;;;;;;10462334;28;20217;-69
2022/12/12 23:20:45;;;;;;;10.83;6.23;;;;;;;;;;10456187;28;20604;-69
2022/12/12 23:25:46;;;;;;;16.93;6.07;;;;;;;;;;10457422;28;20222;-69
2022/12/12 23:30:47;;;;;;;9.63;5.10;;;;;;;;;;10461916;28;20564;-70
2022/12/12 23:35:48;;;;;;;17.63;5.73;;;;;;;;;;10456298;28;20222;-68
2022/12/12 23:40:50;;;;;;;13.20;6.33;;;;;;;;;;10458932;28;20649;-69
2022/12/12 23:45:51;;;;;;;10.33;5.80;;;;;;;;;;10456414;28;20237;-69
2022/12/12 23:50:52;;;;;;;14.73;5.83;;;;;;;;;;10458285;28;20544;-69
2022/12/12 23:55:53;;;;;;;11.20;5.10;;;;;;;;;;10454405;28;20214;-69
